sensor_id;sensor_type;location;lat;lon;timestamp;temperature;humidity
33382;DHT22;21342;48.786;9.166;2023-01-04T00:02:27;6.20;99.90
33382;DHT22;21342;48.786;9.166;2023-01-04T00:04:54;6.10;99.90
33382;DHT22;21342;48.786;9.166;2023-01-04T00:07:22;6.00;99.90
33382;DHT22;21342;48.786;9.166;2023-01-04T00:09:49;6.10;99.90
33382;DHT22;21342;48.786;9.166;2023-01-04T00:12:16;6.00;99.90
33382;DHT22;21342;48.786;9.166;2023-01-04T00:14:44;6.00;99.90
33382;DHT22;21342;48.786;9.166;2023-01-04T00:17:11;6.00;99.90
33382;DHT22;21342;48.786;9.166;2023-01-04T00:19:38;6.10;99.90
33382;DHT22;21342;48.786;9.166;2023-01-04T00:22:05;6.10;99.90
33382;DHT22;21342;48.786;9.166;2023-01-04T00:24:34;5.90;99.90
33382;DHT22;21342;48.786;9.166;2023-01-04T00:27:01;5.80;99.90
33382;DHT22;21342;48.786;9.166;2023-01-04T00:29:28;5.80;99.90
33382;DHT22;21342;48.786;9.166;2023-01-04T00:31:55;5.70;99.90
33382;DHT22;21342;48.786;9.166;2023-01-04T00:34:22;5.80;99.90
33382;DHT22;21342;48.786;9.166;2023-01-04T00:36:50;5.70;99.90
33382;DHT22;21342;48.786;9.166;2023-01-04T00:39:17;5.80;99.90
33382;DHT22;21342;48.786;9.166;2023-01-04T00:41:47;5.80;99.90
33382;DHT22;21342;48.786;9.166;2023-01-04T00:44:15;5.80;99.90
33382;DHT22;21342;48.786;9.166;2023-01-04T00:46:43;5.80;99.90
33382;DHT22;21342;48.786;9.166;2023-01-04T00:49:10;5.80;99.90
33382;DHT22;21342;48.786;9.166;2023-01-04T00:51:39;5.80;99.90
33382;DHT22;21342;48.786;9.166;2023-01-04T00:54:10;5.70;99.90
33382;DHT22;21342;48.786;9.166;2023-01-04T00:56:38;5.60;99.90
33382;DHT22;21342;48.786;9.166;2023-01-04T00:59:06;5.60;99.90
33382;DHT22;21342;48.786;9.166;2023-01-04T01:01:35;5.70;99.90
33382;DHT22;21342;48.786;9.166;2023-01-04T01:04:03;5.70;99.90
33382;DHT22;21342;48.786;9.166;2023-01-04T01:06:31;5.70;99.90
33382;DHT22;21342;48.786;9.166;2023-01-04T01:08:59;5.70;99.90
33382;DHT22;21342;48.786;9.166;2023-01-04T01:11:27;5.60;99.90
33382;DHT22;21342;48.786;9.166;2023-01-04T01:13:55;5.70;99.90
33382;DHT22;21342;48.786;9.166;2023-01-04T01:16:24;5.70;99.90
33382;DHT22;21342;48.786;9.166;2023-01-04T01:18:52;5.60;99.90
33382;DHT22;21342;48.786;9.166;2023-01-04T01:21:21;5.60;99.90
33382;DHT22;21342;48.786;9.166;2023-01-04T01:23:49;5.60;99.90
33382;DHT22;21342;48.786;9.166;2023-01-04T01:26:19;5.70;99.90
33382;DHT22;21342;48.786;9.166;2023-01-04T01:28:47;5.60;99.90
33382;DHT22;21342;48.786;9.166;2023-01-04T01:31:16;5.60;99.90
33382;DHT22;21342;48.786;9.166;2023-01-04T01:33:46;5.70;99.90
33382;DHT22;21342;48.786;9.166;2023-01-04T01:36:15;5.70;99.90
33382;DHT22;21342;48.786;9.166;2023-01-04T01:38:42;5.70;99.90
33382;DHT22;21342;48.786;9.166;2023-01-04T01:41:16;5.70;99.90
33382;DHT22;21342;48.786;9.166;2023-01-04T01:43:49;5.70;99.90
33382;DHT22;21342;48.786;9.166;2023-01-04T01:46:21;5.60;99.90
33382;DHT22;21342;48.786;9.166;2023-01-04T01:48:52;5.70;99.90
33382;DHT22;21342;48.786;9.166;2023-01-04T01:51:20;5.70;99.90
33382;DHT22;21342;48.786;9.166;2023-01-04T01:53:52;5.70;99.90
33382;DHT22;21342;48.786;9.166;2023-01-04T01:56:20;5.60;99.90
33382;DHT22;21342;48.786;9.166;2023-01-04T01:58:51;5.70;99.90
33382;DHT22;21342;48.786;9.166;2023-01-04T02:01:19;5.60;99.90
33382;DHT22;21342;48.786;9.166;2023-01-04T02:03:46;5.60;99.90
33382;DHT22;21342;48.786;9.166;2023-01-04T02:06:19;5.60;99.90
33382;DHT22;21342;48.786;9.166;2023-01-04T02:08:48;5.60;99.90
33382;DHT22;21342;48.786;9.166;2023-01-04T02:11:15;5.50;99.90
33382;DHT22;21342;48.786;9.166;2023-01-04T02:13:43;5.50;99.90
33382;DHT22;21342;48.786;9.166;2023-01-04T02:16:37;5.60;99.90
33382;DHT22;21342;48.786;9.166;2023-01-04T02:19:36;5.60;99.90
33382;DHT22;21342;48.786;9.166;2023-01-04T02:22:25;5.70;99.90
33382;DHT22;21342;48.786;9.166;2023-01-04T02:27:52;5.70;99.90
33382;DHT22;21342;48.786;9.166;2023-01-04T02:33:33;5.80;99.90
33382;DHT22;21342;48.786;9.166;2023-01-04T02:36:10;5.90;99.90
33382;DHT22;21342;48.786;9.166;2023-01-04T02:38:47;5.90;99.90
33382;DHT22;21342;48.786;9.166;2023-01-04T02:41:26;5.90;99.90
33382;DHT22;21342;48.786;9.166;2023-01-04T02:44:00;5.90;99.90
33382;DHT22;21342;48.786;9.166;2023-01-04T02:46:49;6.00;99.90
33382;DHT22;21342;48.786;9.166;2023-01-04T02:49:20;5.90;99.90
33382;DHT22;21342;48.786;9.166;2023-01-04T02:52:04;6.00;99.90
33382;DHT22;21342;48.786;9.166;2023-01-04T02:54:32;6.00;99.90
33382;DHT22;21342;48.786;9.166;2023-01-04T02:57:07;6.00;99.90
33382;DHT22;21342;48.786;9.166;2023-01-04T03:00:08;5.90;99.90
33382;DHT22;21342;48.786;9.166;2023-01-04T03:02:52;6.00;99.90
33382;DHT22;21342;48.786;9.166;2023-01-04T03:05:49;5.90;99.90
33382;DHT22;21342;48.786;9.166;2023-01-04T03:08:38;5.80;99.90
33382;DHT22;21342;48.786;9.166;2023-01-04T03:11:07;5.80;99.90
33382;DHT22;21342;48.786;9.166;2023-01-04T03:13:58;5.80;99.90
33382;DHT22;21342;48.786;9.166;2023-01-04T03:16:25;5.80;99.90
33382;DHT22;21342;48.786;9.166;2023-01-04T03:18:55;5.80;99.90
33382;DHT22;21342;48.786;9.166;2023-01-04T03:21:25;5.80;99.90
33382;DHT22;21342;48.786;9.166;2023-01-04T03:23:55;5.80;99.90
33382;DHT22;21342;48.786;9.166;2023-01-04T03:26:43;5.80;99.90
33382;DHT22;21342;48.786;9.166;2023-01-04T03:29:33;5.80;99.90
33382;DHT22;21342;48.786;9.166;2023-01-04T03:32:22;5.80;99.90
33382;DHT22;21342;48.786;9.166;2023-01-04T03:35:24;5.80;99.90
33382;DHT22;21342;48.786;9.166;2023-01-04T03:37:58;5.70;99.90
33382;DHT22;21342;48.786;9.166;2023-01-04T03:40:45;5.60;99.90
33382;DHT22;21342;48.786;9.166;2023-01-04T03:43:39;5.60;99.90
33382;DHT22;21342;48.786;9.166;2023-01-04T03:46:31;5.70;99.90
33382;DHT22;21342;48.786;9.166;2023-01-04T03:49:21;5.70;99.90
33382;DHT22;21342;48.786;9.166;2023-01-04T03:51:52;5.70;99.90
33382;DHT22;21342;48.786;9.166;2023-01-04T03:54:24;5.60;99.90
33382;DHT22;21342;48.786;9.166;2023-01-04T03:56:55;5.60;99.90
33382;DHT22;21342;48.786;9.166;2023-01-04T03:59:24;5.70;99.90
33382;DHT22;21342;48.786;9.166;2023-01-04T04:01:52;5.70;99.90
33382;DHT22;21342;48.786;9.166;2023-01-04T04:04:19;5.70;99.90
33382;DHT22;21342;48.786;9.166;2023-01-04T04:07:04;5.80;99.90
33382;DHT22;21342;48.786;9.166;2023-01-04T04:09:50;5.80;99.90
33382;DHT22;21342;48.786;9.166;2023-01-04T04:12:17;5.80;99.90
33382;DHT22;21342;48.786;9.166;2023-01-04T04:14:44;5.90;99.90
33382;DHT22;21342;48.786;9.166;2023-01-04T04:17:11;5.90;99.90
33382;DHT22;21342;48.786;9.166;2023-01-04T04:19:39;5.90;99.90
33382;DHT22;21342;48.786;9.166;2023-01-04T04:22:06;6.00;99.90
33382;DHT22;21342;48.786;9.166;2023-01-04T04:24:33;6.10;99.90
33382;DHT22;21342;48.786;9.166;2023-01-04T04:27:01;6.10;99.90
33382;DHT22;21342;48.786;9.166;2023-01-04T04:29:28;6.10;99.90
33382;DHT22;21342;48.786;9.166;2023-01-04T04:31:55;6.20;99.90
33382;DHT22;21342;48.786;9.166;2023-01-04T04:34:22;6.20;99.90
33382;DHT22;21342;48.786;9.166;2023-01-04T04:36:49;6.20;99.90
33382;DHT22;21342;48.786;9.166;2023-01-04T04:39:20;6.20;99.90
33382;DHT22;21342;48.786;9.166;2023-01-04T04:41:47;6.20;99.90
33382;DHT22;21342;48.786;9.166;2023-01-04T04:44:17;6.20;99.90
33382;DHT22;21342;48.786;9.166;2023-01-04T04:46:45;6.20;99.90
33382;DHT22;21342;48.786;9.166;2023-01-04T04:49:13;6.30;99.90
33382;DHT22;21342;48.786;9.166;2023-01-04T04:51:41;6.30;99.90
33382;DHT22;21342;48.786;9.166;2023-01-04T04:54:09;6.20;99.90
33382;DHT22;21342;48.786;9.166;2023-01-04T04:56:36;6.20;99.90
33382;DHT22;21342;48.786;9.166;2023-01-04T04:59:04;6.30;99.90
33382;DHT22;21342;48.786;9.166;2023-01-04T05:01:33;6.40;99.90
33382;DHT22;21342;48.786;9.166;2023-01-04T05:04:00;6.40;99.90
33382;DHT22;21342;48.786;9.166;2023-01-04T05:06:27;6.50;99.90
33382;DHT22;21342;48.786;9.166;2023-01-04T05:08:54;6.50;99.90
33382;DHT22;21342;48.786;9.166;2023-01-04T05:11:21;6.50;99.90
33382;DHT22;21342;48.786;9.166;2023-01-04T05:14:02;6.60;99.90
33382;DHT22;21342;48.786;9.166;2023-01-04T05:16:29;6.60;99.90
33382;DHT22;21342;48.786;9.166;2023-01-04T05:18:57;6.60;99.90
33382;DHT22;21342;48.786;9.166;2023-01-04T05:21:25;6.60;99.90
33382;DHT22;21342;48.786;9.166;2023-01-04T05:23:51;6.70;99.90
33382;DHT22;21342;48.786;9.166;2023-01-04T05:26:19;6.70;99.90
33382;DHT22;21342;48.786;9.166;2023-01-04T05:28:46;6.80;99.90
33382;DHT22;21342;48.786;9.166;2023-01-04T05:31:13;6.80;99.90
33382;DHT22;21342;48.786;9.166;2023-01-04T05:33:39;6.90;99.90
33382;DHT22;21342;48.786;9.166;2023-01-04T05:36:07;7.00;99.90
33382;DHT22;21342;48.786;9.166;2023-01-04T05:38:34;6.90;99.90
33382;DHT22;21342;48.786;9.166;2023-01-04T05:41:01;6.90;99.90
33382;DHT22;21342;48.786;9.166;2023-01-04T05:43:28;6.90;99.90
33382;DHT22;21342;48.786;9.166;2023-01-04T05:45:56;6.90;99.90
33382;DHT22;21342;48.786;9.166;2023-01-04T05:48:24;7.00;99.90
33382;DHT22;21342;48.786;9.166;2023-01-04T05:50:51;6.90;99.90
33382;DHT22;21342;48.786;9.166;2023-01-04T05:53:20;7.00;99.90
33382;DHT22;21342;48.786;9.166;2023-01-04T05:55:47;7.00;99.90
33382;DHT22;21342;48.786;9.166;2023-01-04T05:58:14;7.00;99.90
33382;DHT22;21342;48.786;9.166;2023-01-04T06:00:42;7.10;99.90
33382;DHT22;21342;48.786;9.166;2023-01-04T06:03:09;7.10;99.90
33382;DHT22;21342;48.786;9.166;2023-01-04T06:05:36;7.20;99.90
33382;DHT22;21342;48.786;9.166;2023-01-04T06:08:03;7.20;99.90
33382;DHT22;21342;48.786;9.166;2023-01-04T06:10:32;7.30;99.90
33382;DHT22;21342;48.786;9.166;2023-01-04T06:12:59;7.30;99.90
33382;DHT22;21342;48.786;9.166;2023-01-04T06:15:26;7.30;99.90
33382;DHT22;21342;48.786;9.166;2023-01-04T06:17:53;7.30;99.90
33382;DHT22;21342;48.786;9.166;2023-01-04T06:20:20;7.40;99.90
33382;DHT22;21342;48.786;9.166;2023-01-04T06:22:47;7.30;99.90
33382;DHT22;21342;48.786;9.166;2023-01-04T06:25:14;7.40;99.90
33382;DHT22;21342;48.786;9.166;2023-01-04T06:27:43;7.40;99.90
33382;DHT22;21342;48.786;9.166;2023-01-04T06:30:10;7.50;99.90
33382;DHT22;21342;48.786;9.166;2023-01-04T06:32:38;7.50;99.90
33382;DHT22;21342;48.786;9.166;2023-01-04T06:35:05;7.50;99.90
33382;DHT22;21342;48.786;9.166;2023-01-04T06:37:32;7.60;99.90
33382;DHT22;21342;48.786;9.166;2023-01-04T06:40:03;7.60;99.90
33382;DHT22;21342;48.786;9.166;2023-01-04T06:42:30;7.60;99.90
33382;DHT22;21342;48.786;9.166;2023-01-04T06:45:14;7.60;99.90
33382;DHT22;21342;48.786;9.166;2023-01-04T06:47:42;7.70;99.90
33382;DHT22;21342;48.786;9.166;2023-01-04T06:50:10;7.70;99.90
33382;DHT22;21342;48.786;9.166;2023-01-04T06:52:37;7.70;99.90
33382;DHT22;21342;48.786;9.166;2023-01-04T06:55:05;7.60;99.90
33382;DHT22;21342;48.786;9.166;2023-01-04T06:57:33;7.60;99.90
33382;DHT22;21342;48.786;9.166;2023-01-04T07:00:01;7.70;99.90
33382;DHT22;21342;48.786;9.166;2023-01-04T07:02:30;7.70;99.90
33382;DHT22;21342;48.786;9.166;2023-01-04T07:04:57;7.70;99.90
33382;DHT22;21342;48.786;9.166;2023-01-04T07:07:24;7.70;99.90
33382;DHT22;21342;48.786;9.166;2023-01-04T07:09:51;7.70;99.90
33382;DHT22;21342;48.786;9.166;2023-01-04T07:12:18;7.70;99.90
33382;DHT22;21342;48.786;9.166;2023-01-04T07:14:45;7.70;99.90
33382;DHT22;21342;48.786;9.166;2023-01-04T07:17:12;7.70;99.90
33382;DHT22;21342;48.786;9.166;2023-01-04T07:19:41;7.70;99.90
33382;DHT22;21342;48.786;9.166;2023-01-04T07:22:08;7.80;99.90
33382;DHT22;21342;48.786;9.166;2023-01-04T07:24:35;7.80;99.90
33382;DHT22;21342;48.786;9.166;2023-01-04T07:27:02;7.80;99.90
33382;DHT22;21342;48.786;9.166;2023-01-04T07:29:29;7.80;99.90
33382;DHT22;21342;48.786;9.166;2023-01-04T07:31:56;7.90;99.90
33382;DHT22;21342;48.786;9.166;2023-01-04T07:34:25;7.80;99.90
33382;DHT22;21342;48.786;9.166;2023-01-04T07:36:54;7.80;99.90
33382;DHT22;21342;48.786;9.166;2023-01-04T07:39:22;7.80;99.90
33382;DHT22;21342;48.786;9.166;2023-01-04T07:41:49;7.90;99.90
33382;DHT22;21342;48.786;9.166;2023-01-04T07:44:16;7.70;99.90
33382;DHT22;21342;48.786;9.166;2023-01-04T07:46:44;7.70;99.90
33382;DHT22;21342;48.786;9.166;2023-01-04T07:49:13;7.70;99.90
33382;DHT22;21342;48.786;9.166;2023-01-04T07:51:41;7.70;99.90
33382;DHT22;21342;48.786;9.166;2023-01-04T07:54:10;7.60;99.90
33382;DHT22;21342;48.786;9.166;2023-01-04T07:56:37;7.60;99.90
33382;DHT22;21342;48.786;9.166;2023-01-04T07:59:04;7.60;99.90
33382;DHT22;21342;48.786;9.166;2023-01-04T08:01:31;7.50;99.90
33382;DHT22;21342;48.786;9.166;2023-01-04T08:04:00;7.50;99.90
33382;DHT22;21342;48.786;9.166;2023-01-04T08:06:27;7.60;99.90
33382;DHT22;21342;48.786;9.166;2023-01-04T08:08:54;7.50;99.90
33382;DHT22;21342;48.786;9.166;2023-01-04T08:11:23;7.50;99.90
33382;DHT22;21342;48.786;9.166;2023-01-04T08:13:50;7.60;99.90
33382;DHT22;21342;48.786;9.166;2023-01-04T08:16:20;7.50;99.90
33382;DHT22;21342;48.786;9.166;2023-01-04T08:18:51;7.50;99.90
33382;DHT22;21342;48.786;9.166;2023-01-04T08:21:19;7.60;99.90
33382;DHT22;21342;48.786;9.166;2023-01-04T08:23:46;7.50;99.90
33382;DHT22;21342;48.786;9.166;2023-01-04T08:26:15;7.50;99.90
33382;DHT22;21342;48.786;9.166;2023-01-04T08:28:44;7.50;99.90
33382;DHT22;21342;48.786;9.166;2023-01-04T08:31:12;7.60;99.90
33382;DHT22;21342;48.786;9.166;2023-01-04T08:33:41;7.60;99.90
33382;DHT22;21342;48.786;9.166;2023-01-04T08:36:10;7.60;99.90
33382;DHT22;21342;48.786;9.166;2023-01-04T08:38:38;7.60;99.90
33382;DHT22;21342;48.786;9.166;2023-01-04T08:41:05;7.60;99.90
33382;DHT22;21342;48.786;9.166;2023-01-04T08:43:33;7.70;99.90
33382;DHT22;21342;48.786;9.166;2023-01-04T08:46:02;7.70;99.90
33382;DHT22;21342;48.786;9.166;2023-01-04T08:48:30;7.70;99.90
33382;DHT22;21342;48.786;9.166;2023-01-04T08:50:58;7.70;99.90
33382;DHT22;21342;48.786;9.166;2023-01-04T08:53:25;7.80;99.90
33382;DHT22;21342;48.786;9.166;2023-01-04T08:55:53;7.70;99.90
33382;DHT22;21342;48.786;9.166;2023-01-04T08:58:21;7.80;99.90
33382;DHT22;21342;48.786;9.166;2023-01-04T09:00:49;7.80;99.90
33382;DHT22;21342;48.786;9.166;2023-01-04T09:03:17;7.80;99.90
33382;DHT22;21342;48.786;9.166;2023-01-04T09:05:45;7.80;99.90
33382;DHT22;21342;48.786;9.166;2023-01-04T09:08:12;7.90;99.90
33382;DHT22;21342;48.786;9.166;2023-01-04T09:10:39;7.90;99.90
33382;DHT22;21342;48.786;9.166;2023-01-04T09:13:06;7.90;99.90
33382;DHT22;21342;48.786;9.166;2023-01-04T09:15:33;8.00;99.90
33382;DHT22;21342;48.786;9.166;2023-01-04T09:18:01;8.00;99.90
33382;DHT22;21342;48.786;9.166;2023-01-04T09:20:30;8.00;99.90
33382;DHT22;21342;48.786;9.166;2023-01-04T09:22:57;8.00;99.90
33382;DHT22;21342;48.786;9.166;2023-01-04T09:25:25;8.00;99.90
33382;DHT22;21342;48.786;9.166;2023-01-04T09:27:52;8.10;99.90
33382;DHT22;21342;48.786;9.166;2023-01-04T09:30:19;8.10;99.90
33382;DHT22;21342;48.786;9.166;2023-01-04T09:32:46;8.10;99.90
33382;DHT22;21342;48.786;9.166;2023-01-04T09:35:13;8.20;99.90
33382;DHT22;21342;48.786;9.166;2023-01-04T09:37:42;8.20;99.90
33382;DHT22;21342;48.786;9.166;2023-01-04T09:40:18;8.20;99.90
33382;DHT22;21342;48.786;9.166;2023-01-04T09:42:46;8.30;99.90
33382;DHT22;21342;48.786;9.166;2023-01-04T09:45:17;8.40;99.90
33382;DHT22;21342;48.786;9.166;2023-01-04T09:47:49;8.40;99.90
33382;DHT22;21342;48.786;9.166;2023-01-04T09:50:20;8.50;99.90
33382;DHT22;21342;48.786;9.166;2023-01-04T09:52:55;8.50;99.90
33382;DHT22;21342;48.786;9.166;2023-01-04T09:55:28;8.50;99.90
33382;DHT22;21342;48.786;9.166;2023-01-04T09:58:01;8.50;99.90
33382;DHT22;21342;48.786;9.166;2023-01-04T10:00:33;8.60;99.90
33382;DHT22;21342;48.786;9.166;2023-01-04T10:03:04;8.60;99.90
33382;DHT22;21342;48.786;9.166;2023-01-04T10:05:35;8.70;99.90
33382;DHT22;21342;48.786;9.166;2023-01-04T10:08:12;8.70;99.90
33382;DHT22;21342;48.786;9.166;2023-01-04T10:10:46;8.70;99.90
33382;DHT22;21342;48.786;9.166;2023-01-04T10:13:22;8.70;99.90
33382;DHT22;21342;48.786;9.166;2023-01-04T10:15:59;8.60;99.90
33382;DHT22;21342;48.786;9.166;2023-01-04T10:18:36;8.70;99.90
33382;DHT22;21342;48.786;9.166;2023-01-04T10:21:30;8.70;99.90
33382;DHT22;21342;48.786;9.166;2023-01-04T10:24:20;8.70;99.90
33382;DHT22;21342;48.786;9.166;2023-01-04T10:26:50;8.70;99.90
33382;DHT22;21342;48.786;9.166;2023-01-04T10:29:35;8.70;99.90
33382;DHT22;21342;48.786;9.166;2023-01-04T10:32:13;8.80;99.90
33382;DHT22;21342;48.786;9.166;2023-01-04T10:34:43;8.80;99.90
33382;DHT22;21342;48.786;9.166;2023-01-04T10:37:12;8.90;99.90
33382;DHT22;21342;48.786;9.166;2023-01-04T10:39:42;8.90;99.90
33382;DHT22;21342;48.786;9.166;2023-01-04T10:42:16;9.00;99.90
33382;DHT22;21342;48.786;9.166;2023-01-04T10:44:54;8.90;99.90
33382;DHT22;21342;48.786;9.166;2023-01-04T10:47:29;9.00;99.90
33382;DHT22;21342;48.786;9.166;2023-01-04T10:50:04;9.10;99.90
33382;DHT22;21342;48.786;9.166;2023-01-04T10:52:36;9.10;99.90
33382;DHT22;21342;48.786;9.166;2023-01-04T10:55:11;9.10;99.90
33382;DHT22;21342;48.786;9.166;2023-01-04T10:57:45;9.20;99.90
33382;DHT22;21342;48.786;9.166;2023-01-04T11:00:18;9.30;99.90
33382;DHT22;21342;48.786;9.166;2023-01-04T11:02:51;9.20;99.90
33382;DHT22;21342;48.786;9.166;2023-01-04T11:05:24;9.30;99.90
33382;DHT22;21342;48.786;9.166;2023-01-04T11:07:57;9.40;99.90
33382;DHT22;21342;48.786;9.166;2023-01-04T11:10:29;9.40;99.90
33382;DHT22;21342;48.786;9.166;2023-01-04T11:12:57;9.40;99.90
33382;DHT22;21342;48.786;9.166;2023-01-04T11:15:24;9.40;99.90
33382;DHT22;21342;48.786;9.166;2023-01-04T11:17:51;9.40;99.90
33382;DHT22;21342;48.786;9.166;2023-01-04T11:20:19;9.40;99.90
33382;DHT22;21342;48.786;9.166;2023-01-04T11:22:51;9.40;99.90
33382;DHT22;21342;48.786;9.166;2023-01-04T11:25:21;9.40;99.90
33382;DHT22;21342;48.786;9.166;2023-01-04T11:27:53;9.40;99.90
33382;DHT22;21342;48.786;9.166;2023-01-04T11:30:23;9.50;99.90
33382;DHT22;21342;48.786;9.166;2023-01-04T11:32:55;9.50;99.90
33382;DHT22;21342;48.786;9.166;2023-01-04T11:35:38;9.50;99.90
33382;DHT22;21342;48.786;9.166;2023-01-04T11:38:14;9.50;99.90
33382;DHT22;21342;48.786;9.166;2023-01-04T11:40:54;9.50;99.90
33382;DHT22;21342;48.786;9.166;2023-01-04T11:43:24;9.50;99.90
33382;DHT22;21342;48.786;9.166;2023-01-04T11:46:01;9.60;99.90
33382;DHT22;21342;48.786;9.166;2023-01-04T11:48:34;9.60;99.90
33382;DHT22;21342;48.786;9.166;2023-01-04T11:51:02;9.60;99.90
33382;DHT22;21342;48.786;9.166;2023-01-04T11:53:31;9.60;99.90
33382;DHT22;21342;48.786;9.166;2023-01-04T11:56:13;9.70;99.90
33382;DHT22;21342;48.786;9.166;2023-01-04T11:58:44;9.70;99.90
33382;DHT22;21342;48.786;9.166;2023-01-04T12:01:28;9.70;99.90
33382;DHT22;21342;48.786;9.166;2023-01-04T12:03:55;9.80;99.90
33382;DHT22;21342;48.786;9.166;2023-01-04T12:06:31;9.80;99.90
33382;DHT22;21342;48.786;9.166;2023-01-04T12:08:59;9.80;99.90
33382;DHT22;21342;48.786;9.166;2023-01-04T12:11:28;9.80;99.90
33382;DHT22;21342;48.786;9.166;2023-01-04T12:13:58;9.80;99.90
33382;DHT22;21342;48.786;9.166;2023-01-04T12:16:39;9.80;99.90
33382;DHT22;21342;48.786;9.166;2023-01-04T12:19:13;9.90;99.90
33382;DHT22;21342;48.786;9.166;2023-01-04T12:21:42;9.80;99.90
33382;DHT22;21342;48.786;9.166;2023-01-04T12:24:15;9.90;99.90
33382;DHT22;21342;48.786;9.166;2023-01-04T12:26:43;10.00;99.90
33382;DHT22;21342;48.786;9.166;2023-01-04T12:29:43;10.10;99.90
33382;DHT22;21342;48.786;9.166;2023-01-04T12:32:39;10.10;99.90
33382;DHT22;21342;48.786;9.166;2023-01-04T12:38:55;10.20;99.90
33382;DHT22;21342;48.786;9.166;2023-01-04T12:41:24;10.20;99.90
33382;DHT22;21342;48.786;9.166;2023-01-04T12:47:40;10.20;99.90
33382;DHT22;21342;48.786;9.166;2023-01-04T12:50:25;10.20;99.90
33382;DHT22;21342;48.786;9.166;2023-01-04T12:52:54;10.30;99.90
33382;DHT22;21342;48.786;9.166;2023-01-04T12:55:50;10.30;99.90
33382;DHT22;21342;48.786;9.166;2023-01-04T13:01:23;10.40;99.90
33382;DHT22;21342;48.786;9.166;2023-01-04T13:03:56;10.40;99.90
33382;DHT22;21342;48.786;9.166;2023-01-04T13:06:26;10.30;99.90
33382;DHT22;21342;48.786;9.166;2023-01-04T13:08:54;10.40;99.90
33382;DHT22;21342;48.786;9.166;2023-01-04T13:11:38;10.40;99.90
33382;DHT22;21342;48.786;9.166;2023-01-04T13:14:12;10.50;99.90
33382;DHT22;21342;48.786;9.166;2023-01-04T13:16:43;10.50;99.90
33382;DHT22;21342;48.786;9.166;2023-01-04T13:19:19;10.50;99.90
33382;DHT22;21342;48.786;9.166;2023-01-04T13:21:49;10.60;99.90
33382;DHT22;21342;48.786;9.166;2023-01-04T13:24:21;10.60;99.90
33382;DHT22;21342;48.786;9.166;2023-01-04T13:26:48;10.60;99.90
33382;DHT22;21342;48.786;9.166;2023-01-04T13:29:18;10.60;99.90
33382;DHT22;21342;48.786;9.166;2023-01-04T13:31:49;10.60;99.90
33382;DHT22;21342;48.786;9.166;2023-01-04T13:34:21;10.70;99.90
33382;DHT22;21342;48.786;9.166;2023-01-04T13:36:54;10.70;99.90
33382;DHT22;21342;48.786;9.166;2023-01-04T13:39:21;10.70;99.90
33382;DHT22;21342;48.786;9.166;2023-01-04T13:41:50;10.70;99.90
33382;DHT22;21342;48.786;9.166;2023-01-04T13:44:27;10.70;99.90
33382;DHT22;21342;48.786;9.166;2023-01-04T13:47:01;10.70;99.90
33382;DHT22;21342;48.786;9.166;2023-01-04T13:49:30;10.80;99.90
33382;DHT22;21342;48.786;9.166;2023-01-04T13:52:12;10.80;99.90
33382;DHT22;21342;48.786;9.166;2023-01-04T13:54:39;10.80;99.90
33382;DHT22;21342;48.786;9.166;2023-01-04T13:57:10;10.80;99.90
33382;DHT22;21342;48.786;9.166;2023-01-04T13:59:37;10.80;99.90
33382;DHT22;21342;48.786;9.166;2023-01-04T14:02:15;10.90;99.90
33382;DHT22;21342;48.786;9.166;2023-01-04T14:04:44;10.90;99.90
33382;DHT22;21342;48.786;9.166;2023-01-04T14:07:18;10.90;99.90
33382;DHT22;21342;48.786;9.166;2023-01-04T14:09:48;10.90;99.90
33382;DHT22;21342;48.786;9.166;2023-01-04T14:12:17;11.00;99.90
33382;DHT22;21342;48.786;9.166;2023-01-04T14:14:48;10.90;99.90
33382;DHT22;21342;48.786;9.166;2023-01-04T14:17:27;10.90;99.90
33382;DHT22;21342;48.786;9.166;2023-01-04T14:19:58;10.90;99.90
33382;DHT22;21342;48.786;9.166;2023-01-04T14:22:49;10.90;99.90
33382;DHT22;21342;48.786;9.166;2023-01-04T14:25:39;10.90;99.90
33382;DHT22;21342;48.786;9.166;2023-01-04T14:28:31;10.90;99.90
33382;DHT22;21342;48.786;9.166;2023-01-04T14:31:18;10.90;99.90
33382;DHT22;21342;48.786;9.166;2023-01-04T14:33:47;10.90;99.90
33382;DHT22;21342;48.786;9.166;2023-01-04T14:36:20;10.90;99.90
33382;DHT22;21342;48.786;9.166;2023-01-04T14:38:58;10.90;99.90
33382;DHT22;21342;48.786;9.166;2023-01-04T14:41:29;10.90;99.90
33382;DHT22;21342;48.786;9.166;2023-01-04T14:44:12;10.90;99.90
33382;DHT22;21342;48.786;9.166;2023-01-04T14:46:41;10.80;99.90
33382;DHT22;21342;48.786;9.166;2023-01-04T14:49:11;10.80;99.90
33382;DHT22;21342;48.786;9.166;2023-01-04T14:51:42;10.80;99.90
33382;DHT22;21342;48.786;9.166;2023-01-04T14:54:11;10.90;99.90
33382;DHT22;21342;48.786;9.166;2023-01-04T14:56:38;10.90;99.90
33382;DHT22;21342;48.786;9.166;2023-01-04T14:59:06;10.80;99.90
33382;DHT22;21342;48.786;9.166;2023-01-04T15:01:34;10.80;99.90
33382;DHT22;21342;48.786;9.166;2023-01-04T15:04:02;10.80;99.90
33382;DHT22;21342;48.786;9.166;2023-01-04T15:06:29;10.80;99.90
33382;DHT22;21342;48.786;9.166;2023-01-04T15:08:58;10.80;99.90
33382;DHT22;21342;48.786;9.166;2023-01-04T15:11:25;10.70;99.90
33382;DHT22;21342;48.786;9.166;2023-01-04T15:13:53;10.80;99.90
33382;DHT22;21342;48.786;9.166;2023-01-04T15:16:20;10.80;99.90
33382;DHT22;21342;48.786;9.166;2023-01-04T15:18:47;10.70;99.90
33382;DHT22;21342;48.786;9.166;2023-01-04T15:21:19;10.70;99.90
33382;DHT22;21342;48.786;9.166;2023-01-04T15:23:46;10.70;99.90
33382;DHT22;21342;48.786;9.166;2023-01-04T15:26:14;10.70;99.90
33382;DHT22;21342;48.786;9.166;2023-01-04T15:28:42;10.70;99.90
33382;DHT22;21342;48.786;9.166;2023-01-04T15:31:11;10.70;99.90
33382;DHT22;21342;48.786;9.166;2023-01-04T15:33:39;10.60;99.90
33382;DHT22;21342;48.786;9.166;2023-01-04T15:36:07;10.70;99.90
33382;DHT22;21342;48.786;9.166;2023-01-04T15:38:35;10.60;99.90
33382;DHT22;21342;48.786;9.166;2023-01-04T15:41:04;10.70;99.90
33382;DHT22;21342;48.786;9.166;2023-01-04T15:43:35;10.60;99.90
33382;DHT22;21342;48.786;9.166;2023-01-04T15:46:05;10.70;99.90
33382;DHT22;21342;48.786;9.166;2023-01-04T15:48:33;10.70;99.90
33382;DHT22;21342;48.786;9.166;2023-01-04T15:51:04;10.70;99.90
33382;DHT22;21342;48.786;9.166;2023-01-04T15:53:32;10.70;99.90
33382;DHT22;21342;48.786;9.166;2023-01-04T15:56:07;10.70;99.90
33382;DHT22;21342;48.786;9.166;2023-01-04T15:58:36;10.70;99.90
33382;DHT22;21342;48.786;9.166;2023-01-04T16:01:07;10.60;99.90
33382;DHT22;21342;48.786;9.166;2023-01-04T16:03:35;10.70;99.90
33382;DHT22;21342;48.786;9.166;2023-01-04T16:06:06;10.70;99.90
33382;DHT22;21342;48.786;9.166;2023-01-04T16:08:34;10.70;99.90
33382;DHT22;21342;48.786;9.166;2023-01-04T16:11:12;10.80;99.90
33382;DHT22;21342;48.786;9.166;2023-01-04T16:13:41;10.70;99.90
33382;DHT22;21342;48.786;9.166;2023-01-04T16:16:09;10.70;99.90
33382;DHT22;21342;48.786;9.166;2023-01-04T16:18:37;10.70;99.90
33382;DHT22;21342;48.786;9.166;2023-01-04T16:21:05;10.70;99.90
33382;DHT22;21342;48.786;9.166;2023-01-04T16:23:33;10.70;99.90
33382;DHT22;21342;48.786;9.166;2023-01-04T16:26:07;10.70;99.90